sensor_id;sensor_type;location;lat;lon;timestamp;P1;durP1;ratioP1;P2;durP2;ratioP2
41667;SDS011;27356;50.920;5.350;2023-07-20T00:01:57;4.80;;;3.22;;
41667;SDS011;27356;50.920;5.350;2023-07-20T00:04:23;4.28;;;2.95;;
41667;SDS011;27356;50.920;5.350;2023-07-20T00:06:48;4.43;;;3.08;;
41667;SDS011;27356;50.920;5.350;2023-07-20T00:09:14;3.85;;;3.10;;
41667;SDS011;27356;50.920;5.350;2023-07-20T00:11:39;5.57;;;3.15;;
41667;SDS011;27356;50.920;5.350;2023-07-20T00:14:05;5.85;;;3.35;;
41667;SDS011;27356;50.920;5.350;2023-07-20T00:16:31;4.28;;;3.15;;
41667;SDS011;27356;50.920;5.350;2023-07-20T00:18:57;4.00;;;2.97;;
41667;SDS011;27356;50.920;5.350;2023-07-20T00:21:23;5.22;;;3.20;;
41667;SDS011;27356;50.920;5.350;2023-07-20T00:23:49;6.32;;;3.35;;
41667;SDS011;27356;50.920;5.350;2023-07-20T00:26:14;6.55;;;3.30;;
41667;SDS011;27356;50.920;5.350;2023-07-20T00:28:40;3.65;;;3.03;;
41667;SDS011;27356;50.920;5.350;2023-07-20T00:31:06;6.18;;;3.13;;
41667;SDS011;27356;50.920;5.350;2023-07-20T00:33:31;5.13;;;2.88;;
41667;SDS011;27356;50.920;5.350;2023-07-20T00:35:57;7.35;;;3.08;;
41667;SDS011;27356;50.920;5.350;2023-07-20T00:38:23;4.65;;;3.30;;
41667;SDS011;27356;50.920;5.350;2023-07-20T00:40:49;6.05;;;3.22;;
41667;SDS011;27356;50.920;5.350;2023-07-20T00:43:14;6.10;;;3.22;;
41667;SDS011;27356;50.920;5.350;2023-07-20T00:45:40;4.53;;;2.80;;
41667;SDS011;27356;50.920;5.350;2023-07-20T00:48:07;5.22;;;3.10;;
41667;SDS011;27356;50.920;5.350;2023-07-20T00:50:33;8.45;;;3.03;;
41667;SDS011;27356;50.920;5.350;2023-07-20T00:53:00;5.93;;;3.40;;
41667;SDS011;27356;50.920;5.350;2023-07-20T00:55:28;5.40;;;3.15;;
41667;SDS011;27356;50.920;5.350;2023-07-20T00:57:55;5.07;;;2.70;;
41667;SDS011;27356;50.920;5.350;2023-07-20T01:00:20;6.43;;;2.60;;
41667;SDS011;27356;50.920;5.350;2023-07-20T01:02:46;4.22;;;3.22;;
41667;SDS011;27356;50.920;5.350;2023-07-20T01:05:12;3.70;;;2.95;;
41667;SDS011;27356;50.920;5.350;2023-07-20T01:07:39;5.28;;;2.92;;
41667;SDS011;27356;50.920;5.350;2023-07-20T01:12:54;5.15;;;2.38;;
41667;SDS011;27356;50.920;5.350;2023-07-20T01:15:20;4.43;;;3.05;;
41667;SDS011;27356;50.920;5.350;2023-07-20T01:17:46;3.70;;;2.92;;
41667;SDS011;27356;50.920;5.350;2023-07-20T01:20:15;7.82;;;2.97;;
41667;SDS011;27356;50.920;5.350;2023-07-20T01:33:17;4.93;;;2.50;;
41667;SDS011;27356;50.920;5.350;2023-07-20T01:35:44;10.10;;;2.88;;
41667;SDS011;27356;50.920;5.350;2023-07-20T01:38:14;5.63;;;2.60;;
41667;SDS011;27356;50.920;5.350;2023-07-20T01:40:41;3.55;;;2.60;;
41667;SDS011;27356;50.920;5.350;2023-07-20T01:43:07;5.55;;;2.38;;
41667;SDS011;27356;50.920;5.350;2023-07-20T01:45:33;5.75;;;2.47;;
41667;SDS011;27356;50.920;5.350;2023-07-20T01:47:58;9.05;;;2.17;;
41667;SDS011;27356;50.920;5.350;2023-07-20T01:50:24;5.10;;;1.95;;
41667;SDS011;27356;50.920;5.350;2023-07-20T01:52:50;5.97;;;2.00;;
41667;SDS011;27356;50.920;5.350;2023-07-20T01:55:15;4.70;;;2.28;;
41667;SDS011;27356;50.920;5.350;2023-07-20T01:57:41;4.18;;;2.30;;
41667;SDS011;27356;50.920;5.350;2023-07-20T02:00:07;9.20;;;2.42;;
41667;SDS011;27356;50.920;5.350;2023-07-20T02:02:34;5.05;;;2.47;;
41667;SDS011;27356;50.920;5.350;2023-07-20T02:05:00;8.00;;;2.95;;
41667;SDS011;27356;50.920;5.350;2023-07-20T02:07:26;7.88;;;2.50;;
41667;SDS011;27356;50.920;5.350;2023-07-20T02:09:52;11.13;;;3.10;;
41667;SDS011;27356;50.920;5.350;2023-07-20T02:12:18;5.93;;;2.60;;
41667;SDS011;27356;50.920;5.350;2023-07-20T02:14:43;4.85;;;2.10;;
41667;SDS011;27356;50.920;5.350;2023-07-20T02:17:09;4.78;;;2.80;;
41667;SDS011;27356;50.920;5.350;2023-07-20T02:19:36;6.55;;;3.15;;
41667;SDS011;27356;50.920;5.350;2023-07-20T02:22:02;8.00;;;3.00;;
41667;SDS011;27356;50.920;5.350;2023-07-20T02:24:28;9.50;;;3.25;;
41667;SDS011;27356;50.920;5.350;2023-07-20T02:26:53;5.53;;;2.67;;
41667;SDS011;27356;50.920;5.350;2023-07-20T02:29:19;8.02;;;2.60;;
41667;SDS011;27356;50.920;5.350;2023-07-20T02:31:45;5.75;;;3.05;;
41667;SDS011;27356;50.920;5.350;2023-07-20T02:34:10;7.43;;;2.92;;
41667;SDS011;27356;50.920;5.350;2023-07-20T02:36:36;4.85;;;2.85;;
41667;SDS011;27356;50.920;5.350;2023-07-20T02:39:02;4.47;;;2.83;;
41667;SDS011;27356;50.920;5.350;2023-07-20T02:41:29;6.50;;;3.33;;
41667;SDS011;27356;50.920;5.350;2023-07-20T02:43:56;7.60;;;2.83;;
41667;SDS011;27356;50.920;5.350;2023-07-20T02:46:22;4.65;;;3.00;;
41667;SDS011;27356;50.920;5.350;2023-07-20T02:48:47;4.60;;;2.72;;
41667;SDS011;27356;50.920;5.350;2023-07-20T02:51:13;5.10;;;3.03;;
41667;SDS011;27356;50.920;5.350;2023-07-20T02:53:38;7.90;;;3.20;;
41667;SDS011;27356;50.920;5.350;2023-07-20T02:56:04;5.53;;;2.95;;
41667;SDS011;27356;50.920;5.350;2023-07-20T02:58:30;7.15;;;2.80;;
41667;SDS011;27356;50.920;5.350;2023-07-20T03:00:55;7.60;;;3.13;;
41667;SDS011;27356;50.920;5.350;2023-07-20T03:03:21;7.07;;;3.63;;
41667;SDS011;27356;50.920;5.350;2023-07-20T03:05:47;5.88;;;3.45;;
41667;SDS011;27356;50.920;5.350;2023-07-20T03:08:19;4.55;;;2.83;;
41667;SDS011;27356;50.920;5.350;2023-07-20T03:10:45;7.65;;;2.80;;
41667;SDS011;27356;50.920;5.350;2023-07-20T03:13:11;6.18;;;3.45;;
41667;SDS011;27356;50.920;5.350;2023-07-20T03:15:37;7.38;;;3.50;;
41667;SDS011;27356;50.920;5.350;2023-07-20T03:18:03;15.38;;;3.53;;
41667;SDS011;27356;50.920;5.350;2023-07-20T03:20:29;7.88;;;3.92;;
41667;SDS011;27356;50.920;5.350;2023-07-20T03:22:54;8.63;;;3.83;;
41667;SDS011;27356;50.920;5.350;2023-07-20T03:25:20;9.88;;;3.47;;
41667;SDS011;27356;50.920;5.350;2023-07-20T03:27:46;9.45;;;3.95;;
41667;SDS011;27356;50.920;5.350;2023-07-20T03:30:12;8.07;;;3.20;;
41667;SDS011;27356;50.920;5.350;2023-07-20T03:32:37;7.88;;;3.80;;
41667;SDS011;27356;50.920;5.350;2023-07-20T03:35:03;6.18;;;3.60;;
41667;SDS011;27356;50.920;5.350;2023-07-20T03:37:29;8.98;;;3.70;;
41667;SDS011;27356;50.920;5.350;2023-07-20T03:39:55;6.18;;;3.60;;
41667;SDS011;27356;50.920;5.350;2023-07-20T03:42:21;7.68;;;3.45;;
41667;SDS011;27356;50.920;5.350;2023-07-20T03:44:46;11.45;;;3.78;;
41667;SDS011;27356;50.920;5.350;2023-07-20T03:47:12;12.57;;;3.72;;
41667;SDS011;27356;50.920;5.350;2023-07-20T03:49:38;7.00;;;3.55;;
41667;SDS011;27356;50.920;5.350;2023-07-20T03:52:04;8.55;;;3.50;;
41667;SDS011;27356;50.920;5.350;2023-07-20T03:54:29;14.85;;;4.18;;
41667;SDS011;27356;50.920;5.350;2023-07-20T03:56:55;7.97;;;3.45;;
41667;SDS011;27356;50.920;5.350;2023-07-20T03:59:21;5.85;;;4.03;;
41667;SDS011;27356;50.920;5.350;2023-07-20T04:01:46;8.32;;;3.30;;
41667;SDS011;27356;50.920;5.350;2023-07-20T04:04:13;6.60;;;3.45;;
41667;SDS011;27356;50.920;5.350;2023-07-20T04:06:41;10.82;;;3.60;;
41667;SDS011;27356;50.920;5.350;2023-07-20T04:09:09;9.20;;;3.58;;
41667;SDS011;27356;50.920;5.350;2023-07-20T04:11:36;9.82;;;4.35;;
41667;SDS011;27356;50.920;5.350;2023-07-20T04:14:01;7.78;;;3.70;;
41667;SDS011;27356;50.920;5.350;2023-07-20T04:16:27;11.27;;;4.03;;
41667;SDS011;27356;50.920;5.350;2023-07-20T04:18:55;9.38;;;4.18;;
41667;SDS011;27356;50.920;5.350;2023-07-20T04:21:21;9.35;;;3.92;;
41667;SDS011;27356;50.920;5.350;2023-07-20T04:23:47;10.25;;;4.32;;
41667;SDS011;27356;50.920;5.350;2023-07-20T04:26:13;10.27;;;4.63;;
41667;SDS011;27356;50.920;5.350;2023-07-20T04:28:39;8.35;;;4.53;;
41667;SDS011;27356;50.920;5.350;2023-07-20T04:31:13;14.27;;;4.32;;
41667;SDS011;27356;50.920;5.350;2023-07-20T04:33:40;11.50;;;4.10;;
41667;SDS011;27356;50.920;5.350;2023-07-20T04:36:06;7.47;;;3.80;;
41667;SDS011;27356;50.920;5.350;2023-07-20T04:38:33;15.25;;;5.30;;
41667;SDS011;27356;50.920;5.350;2023-07-20T04:40:59;11.20;;;4.63;;
41667;SDS011;27356;50.920;5.350;2023-07-20T04:43:25;12.23;;;4.55;;
41667;SDS011;27356;50.920;5.350;2023-07-20T04:45:51;10.55;;;4.50;;
41667;SDS011;27356;50.920;5.350;2023-07-20T04:48:17;12.15;;;4.65;;
41667;SDS011;27356;50.920;5.350;2023-07-20T04:50:44;9.00;;;4.43;;
41667;SDS011;27356;50.920;5.350;2023-07-20T04:53:11;8.80;;;4.28;;
41667;SDS011;27356;50.920;5.350;2023-07-20T04:55:39;8.70;;;4.95;;
41667;SDS011;27356;50.920;5.350;2023-07-20T04:58:05;12.80;;;5.53;;
41667;SDS011;27356;50.920;5.350;2023-07-20T05:00:32;11.68;;;6.28;;
41667;SDS011;27356;50.920;5.350;2023-07-20T05:02:58;11.50;;;5.70;;
41667;SDS011;27356;50.920;5.350;2023-07-20T05:05:24;8.30;;;5.95;;
41667;SDS011;27356;50.920;5.350;2023-07-20T05:07:50;7.70;;;5.63;;
41667;SDS011;27356;50.920;5.350;2023-07-20T05:10:16;14.85;;;7.60;;
41667;SDS011;27356;50.920;5.350;2023-07-20T05:12:42;15.38;;;6.65;;
41667;SDS011;27356;50.920;5.350;2023-07-20T05:15:08;9.88;;;7.25;;
41667;SDS011;27356;50.920;5.350;2023-07-20T05:17:34;10.07;;;6.22;;
41667;SDS011;27356;50.920;5.350;2023-07-20T05:20:00;11.05;;;6.10;;
41667;SDS011;27356;50.920;5.350;2023-07-20T05:22:26;10.40;;;5.68;;
41667;SDS011;27356;50.920;5.350;2023-07-20T05:24:51;11.23;;;6.72;;
41667;SDS011;27356;50.920;5.350;2023-07-20T05:27:17;9.85;;;5.43;;
41667;SDS011;27356;50.920;5.350;2023-07-20T05:29:43;9.15;;;5.97;;
41667;SDS011;27356;50.920;5.350;2023-07-20T05:32:09;10.48;;;4.80;;
41667;SDS011;27356;50.920;5.350;2023-07-20T05:34:35;10.30;;;5.65;;
41667;SDS011;27356;50.920;5.350;2023-07-20T05:37:01;7.63;;;6.10;;
41667;SDS011;27356;50.920;5.350;2023-07-20T05:39:26;10.05;;;5.65;;
41667;SDS011;27356;50.920;5.350;2023-07-20T05:41:52;13.75;;;5.53;;
41667;SDS011;27356;50.920;5.350;2023-07-20T05:44:18;8.70;;;5.85;;
41667;SDS011;27356;50.920;5.350;2023-07-20T05:46:43;8.70;;;6.47;;
41667;SDS011;27356;50.920;5.350;2023-07-20T05:49:09;9.90;;;6.85;;
41667;SDS011;27356;50.920;5.350;2023-07-20T05:51:35;12.43;;;6.78;;
41667;SDS011;27356;50.920;5.350;2023-07-20T05:54:01;14.25;;;8.18;;
41667;SDS011;27356;50.920;5.350;2023-07-20T05:56:27;12.80;;;9.02;;
41667;SDS011;27356;50.920;5.350;2023-07-20T05:58:52;12.93;;;7.88;;
41667;SDS011;27356;50.920;5.350;2023-07-20T06:01:18;14.23;;;8.95;;
41667;SDS011;27356;50.920;5.350;2023-07-20T06:03:44;12.73;;;9.02;;
41667;SDS011;27356;50.920;5.350;2023-07-20T06:06:10;12.57;;;9.20;;
41667;SDS011;27356;50.920;5.350;2023-07-20T06:08:37;12.98;;;9.73;;
41667;SDS011;27356;50.920;5.350;2023-07-20T06:11:03;16.05;;;10.25;;
41667;SDS011;27356;50.920;5.350;2023-07-20T06:13:29;11.73;;;9.48;;
41667;SDS011;27356;50.920;5.350;2023-07-20T06:15:54;14.18;;;8.82;;
41667;SDS011;27356;50.920;5.350;2023-07-20T06:18:22;13.65;;;8.73;;
41667;SDS011;27356;50.920;5.350;2023-07-20T06:20:49;9.48;;;7.47;;
41667;SDS011;27356;50.920;5.350;2023-07-20T06:23:18;11.80;;;8.30;;
41667;SDS011;27356;50.920;5.350;2023-07-20T06:25:45;11.05;;;7.28;;
41667;SDS011;27356;50.920;5.350;2023-07-20T06:28:11;10.13;;;7.25;;
41667;SDS011;27356;50.920;5.350;2023-07-20T06:30:38;8.10;;;7.05;;
41667;SDS011;27356;50.920;5.350;2023-07-20T06:33:03;8.57;;;6.82;;
41667;SDS011;27356;50.920;5.350;2023-07-20T06:35:29;12.25;;;7.03;;
41667;SDS011;27356;50.920;5.350;2023-07-20T06:37:55;10.98;;;7.55;;
41667;SDS011;27356;50.920;5.350;2023-07-20T06:40:20;8.48;;;6.95;;
41667;SDS011;27356;50.920;5.350;2023-07-20T06:42:46;9.40;;;6.38;;
41667;SDS011;27356;50.920;5.350;2023-07-20T06:45:12;11.23;;;6.13;;
41667;SDS011;27356;50.920;5.350;2023-07-20T06:47:38;7.22;;;5.93;;
41667;SDS011;27356;50.920;5.350;2023-07-20T06:50:05;7.88;;;5.53;;
41667;SDS011;27356;50.920;5.350;2023-07-20T06:52:34;8.10;;;6.38;;
41667;SDS011;27356;50.920;5.350;2023-07-20T06:55:00;7.57;;;5.80;;
41667;SDS011;27356;50.920;5.350;2023-07-20T06:57:26;10.07;;;6.60;;
41667;SDS011;27356;50.920;5.350;2023-07-20T06:59:51;6.75;;;6.15;;
41667;SDS011;27356;50.920;5.350;2023-07-20T07:02:18;6.35;;;5.50;;
41667;SDS011;27356;50.920;5.350;2023-07-20T07:04:44;8.30;;;4.75;;
41667;SDS011;27356;50.920;5.350;2023-07-20T07:07:11;5.57;;;4.93;;
41667;SDS011;27356;50.920;5.350;2023-07-20T07:09:40;7.18;;;4.68;;
41667;SDS011;27356;50.920;5.350;2023-07-20T07:12:06;7.68;;;4.57;;
41667;SDS011;27356;50.920;5.350;2023-07-20T07:14:32;4.45;;;4.05;;
41667;SDS011;27356;50.920;5.350;2023-07-20T07:16:58;7.70;;;4.38;;
41667;SDS011;27356;50.920;5.350;2023-07-20T07:19:24;5.22;;;4.50;;
41667;SDS011;27356;50.920;5.350;2023-07-20T07:21:50;7.22;;;5.28;;
41667;SDS011;27356;50.920;5.350;2023-07-20T07:24:16;6.50;;;5.18;;
41667;SDS011;27356;50.920;5.350;2023-07-20T07:26:41;6.68;;;5.70;;
41667;SDS011;27356;50.920;5.350;2023-07-20T07:29:07;7.32;;;6.00;;
41667;SDS011;27356;50.920;5.350;2023-07-20T07:31:36;7.13;;;5.53;;
41667;SDS011;27356;50.920;5.350;2023-07-20T07:34:03;6.53;;;5.43;;
41667;SDS011;27356;50.920;5.350;2023-07-20T07:36:30;5.35;;;4.85;;
41667;SDS011;27356;50.920;5.350;2023-07-20T07:38:56;5.28;;;4.72;;
41667;SDS011;27356;50.920;5.350;2023-07-20T07:41:22;6.47;;;4.93;;
41667;SDS011;27356;50.920;5.350;2023-07-20T07:43:47;7.45;;;4.57;;
41667;SDS011;27356;50.920;5.350;2023-07-20T07:46:13;5.93;;;4.22;;
41667;SDS011;27356;50.920;5.350;2023-07-20T07:48:39;4.60;;;4.03;;
41667;SDS011;27356;50.920;5.350;2023-07-20T07:51:05;6.18;;;4.82;;
41667;SDS011;27356;50.920;5.350;2023-07-20T07:53:31;4.78;;;4.10;;
41667;SDS011;27356;50.920;5.350;2023-07-20T07:55:57;6.60;;;3.90;;
41667;SDS011;27356;50.920;5.350;2023-07-20T07:58:23;5.28;;;4.05;;
41667;SDS011;27356;50.920;5.350;2023-07-20T08:00:49;4.72;;;3.97;;
41667;SDS011;27356;50.920;5.350;2023-07-20T08:03:15;3.85;;;3.55;;
41667;SDS011;27356;50.920;5.350;2023-07-20T08:05:41;6.15;;;3.22;;
41667;SDS011;27356;50.920;5.350;2023-07-20T08:08:07;4.20;;;3.33;;
41667;SDS011;27356;50.920;5.350;2023-07-20T08:10:33;3.45;;;2.50;;
41667;SDS011;27356;50.920;5.350;2023-07-20T08:12:59;3.55;;;3.25;;
41667;SDS011;27356;50.920;5.350;2023-07-20T08:15:25;3.03;;;2.72;;
41667;SDS011;27356;50.920;5.350;2023-07-20T08:17:50;3.40;;;2.70;;
41667;SDS011;27356;50.920;5.350;2023-07-20T08:20:17;2.60;;;2.40;;
41667;SDS011;27356;50.920;5.350;2023-07-20T08:22:43;3.42;;;2.50;;
41667;SDS011;27356;50.920;5.350;2023-07-20T08:25:09;3.03;;;2.22;;
41667;SDS011;27356;50.920;5.350;2023-07-20T08:27:34;3.85;;;2.50;;
41667;SDS011;27356;50.920;5.350;2023-07-20T08:30:01;5.38;;;2.83;;
41667;SDS011;27356;50.920;5.350;2023-07-20T08:32:27;3.65;;;2.33;;
41667;SDS011;27356;50.920;5.350;2023-07-20T08:34:54;2.47;;;2.10;;
41667;SDS011;27356;50.920;5.350;2023-07-20T08:37:20;3.25;;;2.25;;
41667;SDS011;27356;50.920;5.350;2023-07-20T08:39:46;2.83;;;2.40;;
41667;SDS011;27356;50.920;5.350;2023-07-20T08:42:12;3.10;;;2.30;;
41667;SDS011;27356;50.920;5.350;2023-07-20T08:44:40;10.02;;;2.00;;
41667;SDS011;27356;50.920;5.350;2023-07-20T08:47:08;3.13;;;1.50;;
41667;SDS011;27356;50.920;5.350;2023-07-20T08:49:35;3.17;;;1.95;;
41667;SDS011;27356;50.920;5.350;2023-07-20T08:52:02;6.03;;;2.15;;
41667;SDS011;27356;50.920;5.350;2023-07-20T08:54:32;1.50;;;1.15;;
41667;SDS011;27356;50.920;5.350;2023-07-20T08:56:59;2.95;;;1.45;;
41667;SDS011;27356;50.920;5.350;2023-07-20T08:59:28;1.60;;;1.50;;
41667;SDS011;27356;50.920;5.350;2023-07-20T09:01:55;1.90;;;1.20;;
41667;SDS011;27356;50.920;5.350;2023-07-20T09:04:25;2.92;;;1.40;;
41667;SDS011;27356;50.920;5.350;2023-07-20T09:06:51;1.13;;;1.05;;
41667;SDS011;27356;50.920;5.350;2023-07-20T09:09:17;1.27;;;1.17;;
41667;SDS011;27356;50.920;5.350;2023-07-20T09:11:43;0.95;;;0.80;;
41667;SDS011;27356;50.920;5.350;2023-07-20T09:14:12;1.75;;;1.20;;
41667;SDS011;27356;50.920;5.350;2023-07-20T09:16:52;2.20;;;1.20;;
41667;SDS011;27356;50.920;5.350;2023-07-20T09:19:19;1.63;;;1.10;;
41667;SDS011;27356;50.920;5.350;2023-07-20T09:21:49;0.88;;;0.75;;
41667;SDS011;27356;50.920;5.350;2023-07-20T09:24:19;0.68;;;0.68;;
41667;SDS011;27356;50.920;5.350;2023-07-20T09:26:46;0.60;;;0.40;;
41667;SDS011;27356;50.920;5.350;2023-07-20T09:29:13;0.82;;;0.30;;
41667;SDS011;27356;50.920;5.350;2023-07-20T09:31:42;0.70;;;0.50;;
41667;SDS011;27356;50.920;5.350;2023-07-20T09:34:23;2.17;;;0.57;;
41667;SDS011;27356;50.920;5.350;2023-07-20T09:36:48;1.27;;;0.68;;
41667;SDS011;27356;50.920;5.350;2023-07-20T09:39:14;0.65;;;0.40;;
41667;SDS011;27356;50.920;5.350;2023-07-20T09:41:40;1.15;;;0.73;;
41667;SDS011;27356;50.920;5.350;2023-07-20T09:44:08;2.05;;;0.88;;
41667;SDS011;27356;50.920;5.350;2023-07-20T09:46:45;0.70;;;0.68;;
41667;SDS011;27356;50.920;5.350;2023-07-20T09:49:11;0.63;;;0.63;;
41667;SDS011;27356;50.920;5.350;2023-07-20T09:51:37;1.00;;;0.60;;
41667;SDS011;27356;50.920;5.350;2023-07-20T09:54:04;1.38;;;0.77;;
41667;SDS011;27356;50.920;5.350;2023-07-20T09:56:30;0.70;;;0.57;;
41667;SDS011;27356;50.920;5.350;2023-07-20T09:58:57;0.60;;;0.50;;
41667;SDS011;27356;50.920;5.350;2023-07-20T10:01:23;1.05;;;0.50;;
41667;SDS011;27356;50.920;5.350;2023-07-20T10:03:50;0.70;;;0.40;;
41667;SDS011;27356;50.920;5.350;2023-07-20T10:06:20;2.25;;;0.60;;
41667;SDS011;27356;50.920;5.350;2023-07-20T10:08:49;2.03;;;0.75;;
41667;SDS011;27356;50.920;5.350;2023-07-20T10:11:18;0.82;;;0.52;;
41667;SDS011;27356;50.920;5.350;2023-07-20T10:13:46;0.68;;;0.45;;
41667;SDS011;27356;50.920;5.350;2023-07-20T10:16:15;1.63;;;0.40;;
41667;SDS011;27356;50.920;5.350;2023-07-20T10:18:57;0.60;;;0.43;;
41667;SDS011;27356;50.920;5.350;2023-07-20T10:21:24;1.52;;;0.95;;
41667;SDS011;27356;50.920;5.350;2023-07-20T10:23:51;1.15;;;0.60;;
41667;SDS011;27356;50.920;5.350;2023-07-20T10:26:17;2.33;;;1.10;;
41667;SDS011;27356;50.920;5.350;2023-07-20T10:28:43;0.88;;;0.80;;
41667;SDS011;27356;50.920;5.350;2023-07-20T10:31:09;0.60;;;0.60;;
41667;SDS011;27356;50.920;5.350;2023-07-20T10:33:38;2.58;;;0.80;;
41667;SDS011;27356;50.920;5.350;2023-07-20T10:36:04;0.85;;;0.70;;
41667;SDS011;27356;50.920;5.350;2023-07-20T10:38:40;1.60;;;0.75;;
41667;SDS011;27356;50.920;5.350;2023-07-20T10:43:43;2.10;;;0.93;;
41667;SDS011;27356;50.920;5.350;2023-07-20T10:46:10;2.35;;;0.80;;
41667;SDS011;27356;50.920;5.350;2023-07-20T10:48:39;1.70;;;1.15;;
41667;SDS011;27356;50.920;5.350;2023-07-20T10:51:43;3.67;;;0.80;;
41667;SDS011;27356;50.920;5.350;2023-07-20T10:56:41;3.13;;;0.80;;
41667;SDS011;27356;50.920;5.350;2023-07-20T11:01:47;1.70;;;1.20;;
41667;SDS011;27356;50.920;5.350;2023-07-20T11:04:14;2.25;;;1.23;;
41667;SDS011;27356;50.920;5.350;2023-07-20T11:06:43;2.20;;;1.13;;
41667;SDS011;27356;50.920;5.350;2023-07-20T11:09:10;1.67;;;0.77;;
41667;SDS011;27356;50.920;5.350;2023-07-20T11:11:42;1.30;;;1.00;;
41667;SDS011;27356;50.920;5.350;2023-07-20T11:14:30;1.88;;;0.70;;
41667;SDS011;27356;50.920;5.350;2023-07-20T11:16:59;2.00;;;1.00;;
41667;SDS011;27356;50.920;5.350;2023-07-20T11:19:38;1.30;;;0.77;;
41667;SDS011;27356;50.920;5.350;2023-07-20T11:22:05;0.70;;;0.40;;
41667;SDS011;27356;50.920;5.350;2023-07-20T11:24:34;1.35;;;0.90;;
41667;SDS011;27356;50.920;5.350;2023-07-20T11:27:03;2.33;;;1.15;;
41667;SDS011;27356;50.920;5.350;2023-07-20T11:29:29;0.93;;;0.80;;
41667;SDS011;27356;50.920;5.350;2023-07-20T11:31:55;1.95;;;1.30;;
41667;SDS011;27356;50.920;5.350;2023-07-20T11:34:22;1.50;;;0.90;;
41667;SDS011;27356;50.920;5.350;2023-07-20T11:36:49;1.20;;;0.85;;
41667;SDS011;27356;50.920;5.350;2023-07-20T11:39:17;1.52;;;0.98;;
41667;SDS011;27356;50.920;5.350;2023-07-20T11:41:47;0.60;;;0.60;;
41667;SDS011;27356;50.920;5.350;2023-07-20T11:44:18;0.95;;;0.60;;
41667;SDS011;27356;50.920;5.350;2023-07-20T11:49:11;1.27;;;0.60;;
41667;SDS011;27356;50.920;5.350;2023-07-20T11:51:38;0.73;;;0.47;;
41667;SDS011;27356;50.920;5.350;2023-07-20T11:54:06;1.73;;;0.63;;
41667;SDS011;27356;50.920;5.350;2023-07-20T11:56:33;1.38;;;0.65;;
41667;SDS011;27356;50.920;5.350;2023-07-20T11:58:59;1.48;;;0.70;;
41667;SDS011;27356;50.920;5.350;2023-07-20T12:01:27;1.10;;;0.77;;
41667;SDS011;27356;50.920;5.350;2023-07-20T12:03:57;3.20;;;0.70;;
41667;SDS011;27356;50.920;5.350;2023-07-20T12:06:28;2.00;;;0.80;;
41667;SDS011;27356;50.920;5.350;2023-07-20T12:08:54;1.88;;;0.55;;
41667;SDS011;27356;50.920;5.350;2023-07-20T12:11:31;1.38;;;0.43;;
41667;SDS011;27356;50.920;5.350;2023-07-20T12:14:01;1.33;;;0.60;;
41667;SDS011;27356;50.920;5.350;2023-07-20T12:16:37;0.70;;;0.70;;
41667;SDS011;27356;50.920;5.350;2023-07-20T12:19:07;0.47;;;0.47;;
41667;SDS011;27356;50.920;5.350;2023-07-20T12:21:34;2.28;;;1.05;;
41667;SDS011;27356;50.920;5.350;2023-07-20T12:24:05;0.70;;;0.70;;
41667;SDS011;27356;50.920;5.350;2023-07-20T12:26:31;2.67;;;0.50;;
41667;SDS011;27356;50.920;5.350;2023-07-20T12:28:58;1.92;;;0.40;;
41667;SDS011;27356;50.920;5.350;2023-07-20T12:31:25;1.05;;;0.50;;
41667;SDS011;27356;50.920;5.350;2023-07-20T12:33:52;1.85;;;0.77;;
41667;SDS011;27356;50.920;5.350;2023-07-20T12:36:20;0.70;;;0.40;;
41667;SDS011;27356;50.920;5.350;2023-07-20T12:38:46;0.70;;;0.50;;
41667;SDS011;27356;50.920;5.350;2023-07-20T12:41:12;0.98;;;0.88;;
41667;SDS011;27356;50.920;5.350;2023-07-20T12:43:39;0.50;;;0.50;;
41667;SDS011;27356;50.920;5.350;2023-07-20T12:46:09;0.85;;;0.50;;
41667;SDS011;27356;50.920;5.350;2023-07-20T12:48:37;2.20;;;0.80;;
41667;SDS011;27356;50.920;5.350;2023-07-20T12:51:05;1.95;;;0.63;;
41667;SDS011;27356;50.920;5.350;2023-07-20T12:53:31;1.85;;;0.70;;
41667;SDS011;27356;50.920;5.350;2023-07-20T12:55:57;0.40;;;0.40;;
41667;SDS011;27356;50.920;5.350;2023-07-20T12:58:27;0.95;;;0.52;;
41667;SDS011;27356;50.920;5.350;2023-07-20T13:00:52;1.08;;;0.50;;
41667;SDS011;27356;50.920;5.350;2023-07-20T13:03:18;0.90;;;0.60;;
41667;SDS011;27356;50.920;5.350;2023-07-20T13:05:45;1.83;;;0.50;;
41667;SDS011;27356;50.920;5.350;2023-07-20T13:08:11;1.98;;;0.50;;
41667;SDS011;27356;50.920;5.350;2023-07-20T13:10:37;0.40;;;0.40;;
41667;SDS011;27356;50.920;5.350;2023-07-20T13:13:06;1.83;;;0.40;;
41667;SDS011;27356;50.920;5.350;2023-07-20T13:15:32;0.50;;;0.50;;
41667;SDS011;27356;50.920;5.350;2023-07-20T13:18:06;1.55;;;0.40;;
41667;SDS011;27356;50.920;5.350;2023-07-20T13:20:32;3.25;;;0.60;;
41667;SDS011;27356;50.920;5.350;2023-07-20T13:22:58;1.20;;;0.40;;
41667;SDS011;27356;50.920;5.350;2023-07-20T13:25:24;0.35;;;0.35;;
41667;SDS011;27356;50.920;5.350;2023-07-20T13:27:50;0.70;;;0.50;;
41667;SDS011;27356;50.920;5.350;2023-07-20T13:30:16;1.90;;;0.60;;
41667;SDS011;27356;50.920;5.350;2023-07-20T13:32:42;1.42;;;0.43;;
41667;SDS011;27356;50.920;5.350;2023-07-20T13:35:11;1.80;;;0.50;;
41667;SDS011;27356;50.920;5.350;2023-07-20T13:37:37;0.88;;;0.30;;
41667;SDS011;27356;50.920;5.350;2023-07-20T13:40:03;0.50;;;0.30;;
41667;SDS011;27356;50.920;5.350;2023-07-20T13:42:30;0.82;;;0.40;;
41667;SDS011;27356;50.920;5.350;2023-07-20T13:44:56;0.88;;;0.50;;
41667;SDS011;27356;50.920;5.350;2023-07-20T13:47:22;1.38;;;0.50;;
41667;SDS011;27356;50.920;5.350;2023-07-20T13:49:48;0.63;;;0.60;;
41667;SDS011;27356;50.920;5.350;2023-07-20T13:52:14;0.95;;;0.65;;
41667;SDS011;27356;50.920;5.350;2023-07-20T13:54:40;2.10;;;0.70;;
41667;SDS011;27356;50.920;5.350;2023-07-20T13:57:05;0.93;;;0.50;;
41667;SDS011;27356;50.920;5.350;2023-07-20T13:59:31;1.83;;;0.60;;
41667;SDS011;27356;50.920;5.350;2023-07-20T14:01:57;0.98;;;0.50;;
41667;SDS011;27356;50.920;5.350;2023-07-20T14:04:22;0.43;;;0.43;;
41667;SDS011;27356;50.920;5.350;2023-07-20T14:06:48;0.93;;;0.35;;
41667;SDS011;27356;50.920;5.350;2023-07-20T14:09:15;0.45;;;0.30;;
41667;SDS011;27356;50.920;5.350;2023-07-20T14:11:41;3.03;;;0.28;;
41667;SDS011;27356;50.920;5.350;2023-07-20T14:14:06;0.80;;;0.40;;
41667;SDS011;27356;50.920;5.350;2023-07-20T14:16:32;0.50;;;0.50;;
41667;SDS011;27356;50.920;5.350;2023-07-20T14:18:58;0.55;;;0.40;;
41667;SDS011;27356;50.920;5.350;2023-07-20T14:21:24;0.77;;;0.32;;
41667;SDS011;27356;50.920;5.350;2023-07-20T14:23:50;1.50;;;0.20;;
41667;SDS011;27356;50.920;5.350;2023-07-20T14:26:17;0.50;;;0.32;;
41667;SDS011;27356;50.920;5.350;2023-07-20T14:28:43;0.50;;;0.30;;
41667;SDS011;27356;50.920;5.350;2023-07-20T14:31:09;0.50;;;0.30;;
41667;SDS011;27356;50.920;5.350;2023-07-20T14:33:36;0.47;;;0.40;;
41667;SDS011;27356;50.920;5.350;2023-07-20T14:36:02;0.43;;;0.40;;
41667;SDS011;27356;50.920;5.350;2023-07-20T14:38:28;0.60;;;0.50;;
41667;SDS011;27356;50.920;5.350;2023-07-20T14:40:56;1.05;;;0.32;;
41667;SDS011;27356;50.920;5.350;2023-07-20T14:43:22;1.65;;;0.40;;
41667;SDS011;27356;50.920;5.350;2023-07-20T14:45:48;1.30;;;0.50;;
41667;SDS011;27356;50.920;5.350;2023-07-20T14:48:14;0.30;;;0.20;;
41667;SDS011;27356;50.920;5.350;2023-07-20T14:50:39;1.95;;;0.40;;
41667;SDS011;27356;50.920;5.350;2023-07-20T14:53:05;0.30;;;0.30;;
41667;SDS011;27356;50.920;5.350;2023-07-20T14:55:31;0.65;;;0.38;;
41667;SDS011;27356;50.920;5.350;2023-07-20T14:57:57;0.22;;;0.20;;
41667;SDS011;27356;50.920;5.350;2023-07-20T15:00:23;0.77;;;0.25;;
41667;SDS011;27356;50.920;5.350;2023-07-20T15:02:49;0.40;;;0.40;;
41667;SDS011;27356;50.920;5.350;2023-07-20T15:05:24;0.30;;;0.30;;
41667;SDS011;27356;50.920;5.350;2023-07-20T15:07:51;0.17;;;0.17;;